O60 weather

Cloverdale Municipal Airport
Cloverdale, California, United States

Public forecast

Using degrees Fahrenheit for public forecast. Weather courtesy of forecast.io.

METAR (pilot weather report)

Closest report is Charles M. Schulz Sonoma County Airport, 18.1 nm (33.6 km) SSE. Retrieved 2019/08/23 17:53 UTC (45 minutes ago):

KSTS 231753Z VRB04KT 9SM HZ CLR 24/15 A2980 RMK AO2 SLP085 T02440150 10244 20122 51008

TAF (pilot weather forecast)

Closest forecast is Charles M. Schulz Sonoma County Airport, 18.1 nm (33.6 km) SSE. Retrieved 2019/08/23 18:40 UTC (0 seconds ago):

TAF KSTS 231738Z 2318/2418 00000KT P6SM SKC FM231900 VRB04KT P6SM SKC FM232100 19010KT P6SM SKC FM240400 19005KT P6SM SKC FM240900 00000KT P6SM BKN006 FM241200 16002KT P6SM OVC003